»·PEaware :: AAL2260 KLGB-KSAN

AAL2260 :: KLGB-KSAN

FLIGHT INFORMATION

Flight Status: Arrived
Operator:
American Airlines
More flights by this operator :: More flights under this callsign
Pilot: Aaron F. (12391)
Aircraft: BOEING 757-200
(B752)
More flights by this aircraft type
Origin: KLGB Long Beach
United States
Destination: KSAN San Diego Intl-Lindbergh
United States
More flights between these airports :: More routes between these airports
Route: V25 PACIF V208 LAX118 CARDI MZB320 MZB
File this flight plan on PilotEdge
Remarks:
Altitude:
(Current/Filed)
11,000ft
Speed:
(Current/Filed)
320kts
Departed: 04-Oct-17 08:55 AM
Arrived: 04-Oct-17 09:26 AM
Distance/Time
Traveled:
81nm/0:31
Distance/Time
To Go:
Arrived

Flight Plot

Page will automatically refresh every two minutes.


Map Options




Map Legend


Flown Route
Filed Route
Departure Airport
Arrival Airport
Navaid (VOR, NDB)
Fix

Horizontal Profiles

Position Reports

Time Latitude Longitude Heading Altitude Ground
Speed
04-Oct-17 08:28 33.819129 -118.146390 135 44ft 0kts
04-Oct-17 08:29 33.819129 -118.146390 135 44ft 0kts
04-Oct-17 08:30 33.819129 -118.146390 135 44ft 0kts
04-Oct-17 08:31 33.819129 -118.146390 135 44ft 0kts
04-Oct-17 08:32 33.819129 -118.146390 135 44ft 0kts
04-Oct-17 08:33 33.819129 -118.146390 135 44ft 0kts
04-Oct-17 08:34 33.819129 -118.146390 135 44ft 0kts
04-Oct-17 08:35 33.819129 -118.146390 135 44ft 0kts
04-Oct-17 08:36 33.819129 -118.146390 135 44ft 0kts
04-Oct-17 08:37 33.819129 -118.146390 135 44ft 0kts
04-Oct-17 08:38 33.819129 -118.146390 135 44ft 0kts
04-Oct-17 08:39 33.819129 -118.146390 135 44ft 0kts
04-Oct-17 08:40 33.819129 -118.146390 135 44ft 0kts
04-Oct-17 08:41 33.819164 -118.146802 59 45ft 2kts
04-Oct-17 08:42 33.818865 -118.147003 356 45ft 0kts
04-Oct-17 08:43 33.818866 -118.147003 356 45ft 0kts
04-Oct-17 08:44 33.818866 -118.147003 356 45ft 0kts
04-Oct-17 08:45 33.818866 -118.147003 356 45ft 0kts
04-Oct-17 08:46 33.818866 -118.147003 356 45ft 0kts
04-Oct-17 08:47 33.818866 -118.147003 356 45ft 0kts
04-Oct-17 08:48 33.818866 -118.147003 356 45ft 0kts
04-Oct-17 08:49 33.818866 -118.147003 356 45ft 0kts
04-Oct-17 08:50 33.818891 -118.147005 356 45ft 2kts
04-Oct-17 08:51 33.821061 -118.147049 358 47ft 0kts
04-Oct-17 08:52 33.821609 -118.148027 271 48ft 2kts
04-Oct-17 08:53 33.821573 -118.147452 87 48ft 15kts
04-Oct-17 08:54 33.817853 -118.146965 180 44ft 17kts
04-Oct-17 08:55 33.814746 -118.145748 129 41ft 10kts
04-Oct-17 08:56 33.811780 -118.142193 134 35ft 14kts
04-Oct-17 08:57 33.808585 -118.138321 134 34ft 16kts
04-Oct-17 08:58 33.807322 -118.138690 309 35ft 16kts
04-Oct-17 08:59 33.829350 -118.169475 295 1878ft 181kts
04-Oct-17 09:00 33.792246 -118.213804 188 3217ft 255kts
04-Oct-17 09:01 33.725322 -118.225793 188 2927ft 235kts
04-Oct-17 09:02 33.662532 -118.237097 188 4209ft 238kts
04-Oct-17 09:03 33.619228 -118.187100 114 6219ft 263kts
04-Oct-17 09:04 33.575297 -118.114153 130 8796ft 277kts
04-Oct-17 09:05 33.518790 -118.044679 133 11074ft 324kts
04-Oct-17 09:06 33.457433 -117.965504 132 11026ft 327kts
04-Oct-17 09:07 33.396025 -117.885791 132 11014ft 327kts
04-Oct-17 09:08 33.369672 -117.788340 73 11004ft 327kts
04-Oct-17 09:09 33.392526 -117.684831 98 11001ft 327kts
04-Oct-17 09:10 33.338511 -117.602559 142 11007ft 327kts
04-Oct-17 09:11 33.267622 -117.537550 142 11003ft 327kts
04-Oct-17 09:12 33.196027 -117.471883 142 10651ft 328kts
04-Oct-17 09:13 33.126628 -117.408199 142 8483ft 298kts
04-Oct-17 09:14 33.066197 -117.352751 142 6933ft 247kts
04-Oct-17 09:15 33.016111 -117.306786 142 7022ft 237kts
04-Oct-17 09:16 32.964689 -117.259590 142 7011ft 238kts
04-Oct-17 09:17 32.902713 -117.251651 185 7008ft 238kts
04-Oct-17 09:18 32.842520 -117.236113 147 6027ft 234kts
04-Oct-17 09:19 32.800031 -117.187154 110 4282ft 213kts
04-Oct-17 09:20 32.788195 -117.123764 93 4820ft 200kts
04-Oct-17 09:21 32.776388 -117.060236 106 5249ft 200kts
04-Oct-17 09:22 32.762043 -116.997709 98 4852ft 198kts
04-Oct-17 09:23 32.758170 -116.933972 127 5295ft 196kts
04-Oct-17 09:24 32.714529 -116.944612 253 4129ft 198kts
04-Oct-17 09:25 32.722822 -117.002866 285 3034ft 181kts
04-Oct-17 09:26 32.727614 -117.056585 274 1968ft 172kts
04-Oct-17 09:27 32.726575 -117.105545 263 1251ft 130kts
04-Oct-17 09:28 32.725099 -117.152537 280 688ft 138kts
04-Oct-17 09:29 32.734316 -117.192847 285 25ft 84kts
04-Oct-17 09:30 32.736022 -117.202158 189 21ft 2kts

Navigation Log

Ident Type
1. KLGB Airport
2. PACIF Fix
3. CARDI Fix
4. MZB Navaid
5. KSAN Airport